Time;durP1;ratioP1;P1;durP2;ratioP2;P2;SDS_P1;SDS_P2;PMS_P1;PMS_P2;Temp;Humidity;BMP_temperature;BMP_pressure;BME280_temperature;BME280_humidity;BME280_pressure;Samples;Min_cycle;Max_cycle;Signal;HPM_P1;HPM_P2
2022/06/23 00:00:57;;;;;;;8.02;3.95;;;;;;;16.97;71.38;100636.53;4972559;28;20049;-70
2022/06/23 00:03:26;;;;;;;10.77;5.28;;;;;;;16.93;72.30;100641.28;4994765;28;20038;-71
2022/06/23 00:06:00;;;;;;;8.15;4.25;;;;;;;16.90;72.38;100641.53;5003739;28;20289;-70
2022/06/23 00:08:27;;;;;;;8.20;4.75;;;;;;;16.88;72.29;100646.13;4990700;28;20050;-70
2022/06/23 00:11:00;;;;;;;9.07;4.32;;;;;;;16.84;72.24;100641.19;4988959;28;20046;-69
2022/06/23 00:13:37;;;;;;;6.78;4.38;;;;;;;16.80;72.58;100637.16;5005374;28;20053;-71
2022/06/23 00:16:06;;;;;;;7.47;4.00;;;;;;;16.76;72.47;100641.88;4980620;28;20045;-69
2022/06/23 00:18:36;;;;;;;10.45;4.28;;;;;;;16.73;72.66;100641.28;5007802;28;20060;-72
2022/06/23 00:21:23;;;;;;;8.63;4.65;;;;;;;16.70;72.60;100640.53;5018938;28;20057;-70
2022/06/23 00:23:59;;;;;;;7.72;4.05;;;;;;;16.69;72.61;100643.31;4984657;28;20060;-69
2022/06/23 00:26:28;;;;;;;10.55;5.22;;;;;;;16.65;72.18;100642.72;4971833;28;20046;-68
2022/06/23 00:29:02;;;;;;;7.70;4.18;;;;;;;16.63;73.04;100657.97;5010067;28;20048;-68
2022/06/23 00:31:41;;;;;;;7.65;4.65;;;;;;;16.60;73.28;100650.25;5000557;28;20061;-68
2022/06/23 00:34:21;;;;;;;7.45;5.07;;;;;;;16.58;73.63;100654.03;5005139;28;20062;-68
2022/06/23 00:36:54;;;;;;;9.40;4.50;;;;;;;16.52;73.33;100651.84;5004637;28;20051;-69
2022/06/23 00:39:28;;;;;;;8.38;4.28;;;;;;;16.48;73.75;100645.09;5004809;28;20149;-70
2022/06/23 00:41:55;;;;;;;9.32;4.18;;;;;;;16.46;73.91;100651.41;5009939;28;20591;-69
2022/06/23 00:44:32;;;;;;;7.85;3.80;;;;;;;16.46;73.74;100653.22;5014821;28;20637;-69
2022/06/23 00:47:02;;;;;;;9.77;4.22;;;;;;;16.45;74.03;100656.84;5004177;28;20037;-69
2022/06/23 00:49:57;;;;;;;8.40;3.80;;;;;;;16.41;73.90;100652.75;5017668;28;20050;-70
2022/06/23 00:52:37;;;;;;;7.65;3.88;;;;;;;16.40;73.99;100651.09;4985551;28;20521;-71
2022/06/23 00:55:22;;;;;;;12.60;5.25;;;;;;;16.39;73.71;100655.56;5006330;28;20076;-70
2022/06/23 00:57:54;;;;;;;9.80;4.43;;;;;;;16.37;75.06;100659.28;4988294;28;20037;-70
2022/06/23 01:00:24;;;;;;;12.55;5.30;;;;;;;16.34;74.29;100654.22;4999921;28;20496;-68
2022/06/23 01:02:58;;;;;;;8.10;4.30;;;;;;;16.33;74.86;100663.16;5004181;28;20068;-69
2022/06/23 01:05:39;;;;;;;11.07;4.35;;;;;;;16.29;73.89;100659.91;5001698;28;20089;-70
2022/06/23 01:08:32;;;;;;;5.78;4.05;;;;;;;16.27;74.28;100659.22;4987452;28;20132;-72
2022/06/23 01:11:04;;;;;;;7.35;4.18;;;;;;;16.25;74.50;100657.63;5002953;28;20046;-70
2022/06/23 01:14:30;;;;;;;8.15;4.95;;;;;;;16.20;75.35;100652.72;5005241;28;20038;-71
2022/06/23 01:17:17;;;;;;;6.60;3.95;;;;;;;16.15;74.92;100663.72;4982877;28;20062;-69
2022/06/23 01:19:47;;;;;;;6.15;4.15;;;;;;;16.12;74.90;100650.69;4965682;28;20053;-72
2022/06/23 01:22:43;;;;;;;5.85;3.78;;;;;;;16.09;75.30;100661.56;4993985;28;20136;-70
2022/06/23 01:25:16;;;;;;;;;;;;;;;16.07;75.64;100657.34;5002351;28;20080;-70
2022/06/23 01:27:59;;;;;;;6.93;4.00;;;;;;;16.02;75.98;100657.72;5003964;28;19927;-69
2022/06/23 01:30:30;;;;;;;11.73;4.45;;;;;;;15.99;75.73;100652.66;5003381;28;20054;-69
2022/06/23 01:33:00;;;;;;;12.38;4.25;;;;;;;15.99;75.27;100657.13;4972230;28;20600;-69
2022/06/23 01:35:32;;;;;;;8.05;4.10;;;;;;;15.97;74.98;100649.28;4989099;28;20065;-69
2022/06/23 01:38:29;;;;;;;8.82;4.50;;;;;;;15.97;75.22;100649.28;5002036;28;20909;-68
2022/06/23 01:41:07;;;;;;;11.18;4.70;;;;;;;15.94;75.20;100646.88;5002932;28;20133;-67
2022/06/23 01:43:39;;;;;;;7.20;4.43;;;;;;;15.93;75.35;100650.50;5008489;28;20053;-68
2022/06/23 01:50:56;;;;;;;7.63;4.00;;;;;;;15.85;75.20;100652.91;4996442;28;20393;-68
2022/06/23 01:53:27;;;;;;;8.27;4.03;;;;;;;15.85;75.58;100656.44;4941651;28;20059;-66
2022/06/23 01:56:28;;;;;;;10.50;4.53;;;;;;;15.82;75.54;100659.31;4970768;28;20053;-69
2022/06/23 01:59:24;;;;;;;8.18;5.15;;;;;;;15.81;76.31;100657.66;5003356;28;20401;-69
2022/06/23 02:02:03;;;;;;;10.20;4.60;;;;;;;15.78;76.22;100665.84;5017668;28;20057;-69
2022/06/23 02:04:34;;;;;;;11.85;4.93;;;;;;;15.74;76.82;100661.75;5004541;28;20050;-69
2022/06/23 02:07:14;;;;;;;8.95;4.32;;;;;;;15.72;75.93;100673.47;4989159;28;20060;-70
2022/06/23 02:09:49;;;;;;;9.95;4.55;;;;;;;15.71;75.85;100664.63;5011316;28;20066;-70
2022/06/23 02:12:19;;;;;;;7.40;3.85;;;;;;;15.69;76.29;100672.72;5007757;28;20057;-69
2022/06/23 02:14:58;;;;;;;10.40;4.57;;;;;;;15.67;76.31;100671.19;4982739;28;20141;-69
2022/06/23 02:17:28;;;;;;;7.82;4.97;;;;;;;15.65;76.90;100673.09;5016602;28;20049;-69
2022/06/23 02:19:58;;;;;;;9.27;5.35;;;;;;;15.62;76.70;100679.44;5000911;28;20145;-67
2022/06/23 02:22:38;;;;;;;7.22;4.35;;;;;;;15.61;76.33;100675.13;4987637;28;20053;-68
2022/06/23 02:25:28;;;;;;;7.88;4.43;;;;;;;15.61;76.24;100680.41;4983030;28;20057;-67
2022/06/23 02:28:18;;;;;;;14.10;4.72;;;;;;;15.58;76.31;100686.00;4988459;28;20073;-69
2022/06/23 02:30:49;;;;;;;11.02;4.78;;;;;;;15.56;76.32;100687.91;4986118;28;20054;-68
2022/06/23 02:33:28;;;;;;;7.55;4.32;;;;;;;15.52;76.23;100690.91;5002445;28;20054;-68
2022/06/23 02:36:20;;;;;;;11.18;4.38;;;;;;;15.51;76.79;100689.25;4984254;28;20058;-68
2022/06/23 02:38:56;;;;;;;10.27;4.78;;;;;;;15.47;77.71;100693.94;5005784;28;20479;-69
2022/06/23 02:41:30;;;;;;;6.32;4.10;;;;;;;15.44;77.35;100702.13;5009493;28;20133;-71
2022/06/23 02:44:19;;;;;;;6.57;3.88;;;;;;;15.40;77.38;100696.22;5010401;28;20407;-70
2022/06/23 02:47:06;;;;;;;12.30;4.72;;;;;;;15.40;77.07;100698.00;4990045;28;20045;-72
2022/06/23 02:49:55;;;;;;;6.18;4.30;;;;;;;15.41;77.32;100707.69;5004242;28;20046;-70
2022/06/23 02:52:34;;;;;;;6.20;4.00;;;;;;;15.39;77.25;100704.28;4984271;28;20073;-70
2022/06/23 02:55:10;;;;;;;10.68;5.55;;;;;;;15.37;77.58;100711.53;5008601;28;20053;-70
2022/06/23 02:57:59;;;;;;;9.30;4.45;;;;;;;15.36;77.72;100707.19;5004140;28;20057;-70
2022/06/23 03:00:34;;;;;;;4.90;4.22;;;;;;;15.36;77.51;100713.34;4999695;28;20058;-71
2022/06/23 03:03:25;;;;;;;9.63;5.18;;;;;;;15.37;77.91;100715.03;5006925;28;20064;-69
2022/06/23 03:06:03;;;;;;;7.13;4.95;;;;;;;15.36;77.19;100715.16;4997107;28;20485;-70
2022/06/23 03:08:39;;;;;;;9.02;5.03;;;;;;;15.38;77.20;100721.19;5024961;28;21107;-69
2022/06/23 03:11:13;;;;;;;8.27;4.55;;;;;;;15.39;76.94;100718.41;4989977;28;20057;-68
2022/06/23 03:13:46;;;;;;;7.95;4.90;;;;;;;15.40;77.42;100717.47;5000121;28;20408;-69
2022/06/23 03:16:33;;;;;;;8.93;5.10;;;;;;;15.41;76.93;100716.50;4992636;28;20415;-69
2022/06/23 03:19:06;;;;;;;9.93;4.57;;;;;;;15.42;77.31;100717.31;5014712;28;20058;-71
2022/06/23 03:21:45;;;;;;;11.80;5.38;;;;;;;15.43;77.00;100716.34;4998288;28;20394;-69
2022/06/23 03:24:31;;;;;;;13.38;4.85;;;;;;;15.46;76.69;100718.78;5015047;28;20481;-71
2022/06/23 03:27:06;;;;;;;9.75;5.15;;;;;;;15.50;76.79;100724.69;4986607;28;20049;-71
2022/06/23 03:29:52;;;;;;;7.53;4.33;;;;;;;15.50;76.74;100728.19;5023298;28;20213;-71
2022/06/23 03:32:24;;;;;;;;;;;;;;;15.50;76.22;100724.69;5007184;28;20096;-69
2022/06/23 03:35:09;;;;;;;7.57;3.97;;;;;;;15.52;76.31;100736.03;4985791;28;20392;-70
2022/06/23 03:37:49;;;;;;;7.03;4.35;;;;;;;15.54;76.07;100728.81;5002325;28;20736;-69
2022/06/23 03:43:32;;;;;;;7.45;5.22;;;;;;;15.61;75.48;100737.97;5012947;28;20693;-69
2022/06/23 03:46:10;;;;;;;8.02;4.57;;;;;;;15.63;75.47;100728.94;5002690;28;20046;-70
2022/06/23 03:48:46;;;;;;;6.88;4.30;;;;;;;15.64;75.50;100738.59;5008327;28;20082;-72
2022/06/23 03:51:19;;;;;;;6.88;4.38;;;;;;;15.65;75.21;100727.00;5001855;28;20054;-72
2022/06/23 03:54:01;;;;;;;11.05;4.80;;;;;;;15.68;74.99;100737.41;4985920;28;20049;-69
2022/06/23 03:56:34;;;;;;;10.18;4.70;;;;;;;15.72;75.18;100732.69;5002981;28;20054;-68
2022/06/23 03:59:07;;;;;;;9.98;4.25;;;;;;;15.75;74.36;100737.75;4993463;28;20048;-68
2022/06/23 04:01:46;;;;;;;9.73;4.35;;;;;;;15.79;73.74;100733.03;4991696;28;20061;-69
2022/06/23 04:04:20;;;;;;;10.65;4.28;;;;;;;15.81;74.02;100736.44;4988898;28;20061;-69
2022/06/23 04:06:49;;;;;;;10.13;4.47;;;;;;;15.85;74.01;100737.84;5004356;28;20658;-69
2022/06/23 04:09:29;;;;;;;6.60;4.25;;;;;;;15.88;73.57;100742.94;4991161;28;20402;-69
2022/06/23 04:12:05;;;;;;;8.70;4.03;;;;;;;15.91;73.54;100743.53;5002813;28;20409;-68
2022/06/23 04:14:52;;;;;;;6.82;4.65;;;;;;;15.94;73.29;100747.78;5008102;28;20473;-67
2022/06/23 04:17:41;;;;;;;7.80;3.90;;;;;;;15.98;72.84;100751.00;5008458;28;20136;-68
2022/06/23 04:20:20;;;;;;;9.02;4.13;;;;;;;16.01;72.31;100759.59;5005833;28;20072;-68
2022/06/23 04:22:56;;;;;;;12.52;3.72;;;;;;;16.06;71.98;100762.72;4995448;28;20061;-68
2022/06/23 04:25:32;;;;;;;4.70;3.95;;;;;;;16.15;71.85;100769.09;5018665;28;20060;-69
2022/06/23 04:28:00;;;;;;;5.72;4.13;;;;;;;16.18;71.69;100767.06;5012818;28;20057;-68
2022/06/23 04:30:36;;;;;;;7.72;4.10;;;;;;;16.26;71.21;100762.94;5003656;28;20049;-68
2022/06/23 04:33:07;;;;;;;7.47;3.90;;;;;;;16.32;70.84;100778.38;4990163;28;20081;-69
2022/06/23 04:35:37;;;;;;;9.10;3.58;;;;;;;16.38;70.58;100784.03;4996315;28;20046;-69
2022/06/23 04:38:13;;;;;;;8.38;4.38;;;;;;;16.44;70.26;100777.41;5000775;28;20985;-69
2022/06/23 04:40:41;;;;;;;10.13;4.53;;;;;;;16.49;70.13;100774.38;4975669;28;20506;-70
2022/06/23 04:43:30;;;;;;;8.07;3.55;;;;;;;16.54;69.85;100769.53;4994996;28;20050;-69
2022/06/23 04:46:07;;;;;;;6.85;3.80;;;;;;;16.57;69.43;100775.44;4991992;28;20054;-70
2022/06/23 04:48:41;;;;;;;7.78;3.90;;;;;;;16.64;69.42;100773.09;5001632;28;20061;-69
2022/06/23 04:51:33;;;;;;;10.63;3.50;;;;;;;16.70;69.20;100773.44;4997306;28;20050;-67
2022/06/23 04:54:09;;;;;;;7.93;4.07;;;;;;;16.77;68.76;100780.97;4994384;28;20589;-69
2022/06/23 04:56:42;;;;;;;6.75;3.63;;;;;;;16.82;68.22;100776.94;5004919;28;20072;-68
2022/06/23 04:59:47;;;;;;;11.38;4.32;;;;;;;16.91;68.11;100775.34;5005378;28;20050;-68
2022/06/23 05:02:18;;;;;;;10.90;3.72;;;;;;;16.96;67.77;100783.78;4989727;28;20077;-69
2022/06/23 05:04:51;;;;;;;7.47;3.90;;;;;;;17.01;67.55;100791.38;5001739;28;20061;-71
2022/06/23 05:07:30;;;;;;;7.38;3.88;;;;;;;17.08;67.26;100787.22;5012755;28;20076;-69
2022/06/23 05:10:01;;;;;;;9.45;3.50;;;;;;;17.15;67.03;100791.06;5005353;28;20564;-70
2022/06/23 05:12:32;;;;;;;6.68;3.85;;;;;;;17.19;66.59;100796.00;4990908;28;20362;-69
2022/06/23 05:15:17;;;;;;;5.35;2.90;;;;;;;17.27;66.57;100791.84;5006388;28;20056;-69
2022/06/23 05:17:52;;;;;;;6.05;3.55;;;;;;;17.33;66.44;100800.16;4988016;28;20119;-69
2022/06/23 05:20:28;;;;;;;8.35;3.90;;;;;;;17.42;65.96;100798.53;4974158;28;20053;-69
2022/06/23 05:22:56;;;;;;;7.13;3.72;;;;;;;17.49;65.70;100807.69;5001069;28;20054;-69
2022/06/23 05:25:34;;;;;;;5.97;3.50;;;;;;;17.60;65.20;100812.09;5009321;28;20049;-70
2022/06/23 05:28:05;;;;;;;6.03;3.17;;;;;;;17.67;64.96;100798.13;5020706;28;20050;-69
2022/06/23 05:30:37;;;;;;;5.03;2.95;;;;;;;17.76;64.64;100795.69;5009323;28;20058;-70
2022/06/23 05:33:26;;;;;;;3.88;3.03;;;;;;;17.79;64.03;100798.94;5007286;28;20424;-70
2022/06/23 05:35:57;;;;;;;8.07;3.55;;;;;;;17.93;63.57;100800.41;4986994;28;20049;-68
2022/06/23 05:39:02;;;;;;;5.90;3.15;;;;;;;18.05;63.52;100798.47;5002359;28;20058;-68
2022/06/23 05:41:39;;;;;;;9.68;3.65;;;;;;;18.11;63.01;100806.78;4954427;28;20046;-68
2022/06/23 05:44:16;;;;;;;4.63;3.10;;;;;;;18.25;62.80;100805.56;4984719;28;20666;-69
2022/06/23 05:46:45;;;;;;;7.43;3.35;;;;;;;18.33;62.37;100794.22;4996899;28;20052;-68
2022/06/23 05:49:25;;;;;;;6.88;3.10;;;;;;;18.41;62.04;100805.03;5006013;28;20053;-69
2022/06/23 05:51:56;;;;;;;8.02;3.30;;;;;;;18.52;61.68;100801.44;4976596;28;20037;-69
2022/06/23 05:54:36;;;;;;;7.43;3.55;;;;;;;18.61;60.88;100805.94;5007287;28;20543;-68
2022/06/23 05:57:14;;;;;;;7.18;3.45;;;;;;;18.71;60.84;100806.81;5012213;28;20062;-69
2022/06/23 06:00:14;;;;;;;9.10;3.17;;;;;;;18.81;60.13;100809.47;5003855;28;20073;-70
2022/06/23 06:02:58;;;;;;;6.25;2.80;;;;;;;18.90;59.98;100812.16;4990033;28;20417;-69
2022/06/23 06:05:33;;;;;;;14.97;3.40;;;;;;;19.01;59.80;100813.88;5003500;28;20062;-69
2022/06/23 06:08:04;;;;;;;5.18;2.80;;;;;;;19.15;59.38;100821.44;5002885;28;20155;-69
2022/06/23 06:10:33;;;;;;;6.25;2.83;;;;;;;19.25;58.46;100815.25;5017058;28;20118;-69
2022/06/23 06:13:02;;;;;;;5.40;3.22;;;;;;;19.36;58.21;100823.09;4986296;28;20038;-69
2022/06/23 06:15:32;;;;;;;8.30;3.03;;;;;;;19.47;57.76;100822.94;4986545;28;20056;-67
2022/06/23 06:18:07;;;;;;;4.47;2.97;;;;;;;19.55;57.34;100823.09;5006119;28;20121;-67
2022/06/23 06:20:36;;;;;;;7.75;3.38;;;;;;;19.68;56.68;100829.00;5001935;28;20058;-66
2022/06/23 06:23:14;;;;;;;5.28;2.80;;;;;;;19.79;56.52;100835.16;5005169;28;20049;-66
2022/06/23 06:25:45;;;;;;;8.23;3.00;;;;;;;19.89;56.08;100838.63;4997834;28;20073;-67
2022/06/23 06:28:20;;;;;;;8.20;2.88;;;;;;;19.98;55.64;100830.56;4991748;28;20057;-67
2022/06/23 06:31:13;;;;;;;6.40;3.27;;;;;;;20.12;55.28;100829.25;5002052;28;20103;-67
2022/06/23 06:34:21;;;;;;;6.07;2.85;;;;;;;20.28;54.85;100831.31;4998724;28;20969;-63
2022/06/23 06:36:50;;;;;;;7.85;2.72;;;;;;;20.38;54.40;100831.25;4940436;28;20594;-66
2022/06/23 06:39:21;;;;;;;14.13;3.58;;;;;;;20.44;54.42;100826.16;4990905;28;20136;-65
2022/06/23 06:41:56;;;;;;;6.03;2.53;;;;;;;20.54;54.36;100828.81;4989416;28;20065;-64
2022/06/23 06:44:23;;;;;;;;;;;;;;;20.61;53.77;100827.19;5004216;28;20068;-64
2022/06/23 06:46:50;;;;;;;5.25;2.53;;;;;;;20.70;53.63;100836.16;5013217;28;19948;-64
2022/06/23 06:49:22;;;;;;;7.63;2.95;;;;;;;20.81;53.52;100835.97;5006951;28;20062;-65
2022/06/23 06:51:53;;;;;;;4.03;2.83;;;;;;;20.83;53.49;100825.94;4990905;28;20426;-69
2022/06/23 06:54:25;;;;;;;6.10;2.70;;;;;;;20.93;53.49;100825.84;4993804;28;20058;-64
2022/06/23 06:56:55;;;;;;;6.97;2.75;;;;;;;21.12;52.66;100832.88;5003669;28;20050;-64
2022/06/23 06:59:46;;;;;;;7.43;2.88;;;;;;;21.19;52.32;100832.13;5000538;28;20042;-65
2022/06/23 07:02:27;;;;;;;5.05;2.55;;;;;;;21.35;52.46;100835.97;5001369;28;20057;-66
2022/06/23 07:05:04;;;;;;;9.80;3.10;;;;;;;21.45;51.50;100837.56;4996187;28;22078;-64
2022/06/23 07:07:38;;;;;;;4.93;2.20;;;;;;;21.55;51.52;100833.94;4988282;28;20054;-64
2022/06/23 07:10:47;;;;;;;8.13;2.70;;;;;;;21.66;51.12;100839.91;5009111;28;21232;-64
2022/06/23 07:13:21;;;;;;;6.90;2.33;;;;;;;21.81;50.82;100831.28;4967692;28;20050;-64
2022/06/23 07:15:54;;;;;;;6.72;2.83;;;;;;;21.91;50.00;100837.34;4965021;28;20115;-65
2022/06/23 07:18:32;;;;;;;6.18;2.80;;;;;;;21.95;50.29;100833.38;4986777;28;20660;-64
2022/06/23 07:21:07;;;;;;;7.28;2.50;;;;;;;22.04;49.76;100836.94;5002376;28;20416;-64
2022/06/23 07:24:02;;;;;;;3.65;2.17;;;;;;;22.20;49.40;100835.22;5006326;28;20316;-64
2022/06/23 07:26:45;;;;;;;5.97;2.58;;;;;;;22.35;48.96;100834.59;5004405;28;20524;-64
2022/06/23 07:29:18;;;;;;;5.35;2.30;;;;;;;22.48;48.94;100840.34;5009913;28;20049;-64
2022/06/23 07:32:40;;;;;;;7.68;3.17;;;;;;;22.60;48.13;100835.50;5000397;28;20524;-64
2022/06/23 07:35:17;;;;;;;6.30;2.65;;;;;;;22.60;47.80;100832.81;4960475;28;20751;-64
2022/06/23 07:37:56;;;;;;;7.70;2.80;;;;;;;22.67;47.17;100836.53;4999786;28;20068;-64
2022/06/23 07:40:25;;;;;;;7.18;2.58;;;;;;;22.80;47.09;100833.38;5000449;28;20132;-64
2022/06/23 07:43:17;;;;;;;8.60;2.50;;;;;;;22.90;47.28;100839.47;5005897;28;20049;-63
2022/06/23 07:45:58;;;;;;;3.28;2.00;;;;;;;22.97;46.88;100838.66;4989568;28;20050;-64
2022/06/23 07:48:28;;;;;;;5.55;2.60;;;;;;;23.08;46.83;100845.53;5003556;28;20073;-64
2022/06/23 07:50:56;;;;;;;6.70;2.83;;;;;;;23.16;46.91;100845.53;5005578;28;20481;-64
2022/06/23 07:53:34;;;;;;;8.40;2.55;;;;;;;23.30;46.75;100844.03;4985704;28;20540;-65
2022/06/23 07:56:04;;;;;;;5.47;2.20;;;;;;;23.39;46.28;100842.19;4994310;28;20064;-64
2022/06/23 07:58:34;;;;;;;6.63;2.78;;;;;;;23.49;46.15;100834.78;5002569;28;20054;-65
2022/06/23 08:01:07;;;;;;;6.60;2.70;;;;;;;23.62;46.02;100837.81;4998830;28;20136;-64
2022/06/23 08:03:37;;;;;;;7.03;2.60;;;;;;;23.73;46.31;100842.00;5002002;28;20097;-65
2022/06/23 08:06:09;;;;;;;9.35;3.00;;;;;;;23.83;45.44;100840.00;5001258;28;20088;-65
2022/06/23 08:08:38;;;;;;;4.90;2.45;;;;;;;23.90;45.53;100845.50;5001861;28;20058;-64
2022/06/23 08:14:23;;;;;;;4.07;2.38;;;;;;;24.08;44.62;100832.69;5002126;28;20498;-64
2022/06/23 08:16:50;;;;;;;5.32;2.38;;;;;;;24.13;44.57;100841.06;4984674;28;20530;-65
2022/06/23 08:19:44;;;;;;;5.28;2.97;;;;;;;24.20;44.49;100842.06;4988434;28;20046;-64
2022/06/23 08:22:16;;;;;;;5.78;2.55;;;;;;;24.31;44.16;100840.00;5003056;28;20061;-64
2022/06/23 08:24:48;;;;;;;6.97;2.35;;;;;;;24.39;44.26;100840.81;5002857;28;20512;-63
2022/06/23 08:27:38;;;;;;;5.80;2.80;;;;;;;24.48;43.53;100841.63;5005030;28;20045;-63
2022/06/23 08:30:09;;;;;;;6.18;2.13;;;;;;;24.59;43.45;100843.09;5002194;28;20185;-63
2022/06/23 08:32:38;;;;;;;3.75;2.28;;;;;;;24.73;43.52;100839.66;5002306;28;20077;-64
2022/06/23 08:35:24;;;;;;;4.63;2.30;;;;;;;24.90;43.09;100841.25;5004849;28;20053;-64
2022/06/23 08:38:05;;;;;;;3.33;1.98;;;;;;;25.05;42.81;100840.47;5005096;28;20116;-65
2022/06/23 08:40:57;;;;;;;4.63;2.40;;;;;;;25.09;42.58;100839.94;4998855;28;20049;-64
2022/06/23 08:43:39;;;;;;;7.00;2.35;;;;;;;25.15;42.34;100839.22;5005684;28;20159;-64
2022/06/23 08:46:19;;;;;;;4.43;2.20;;;;;;;25.24;42.53;100845.38;5000908;28;20070;-63
2022/06/23 08:49:07;;;;;;;5.72;2.40;;;;;;;25.36;42.05;100838.56;4999507;28;20064;-63
2022/06/23 08:51:41;;;;;;;6.18;2.30;;;;;;;25.45;41.76;100837.47;5002561;28;20668;-63
2022/06/23 08:54:30;;;;;;;6.28;2.15;;;;;;;25.48;41.45;100830.84;5004954;28;20085;-64
2022/06/23 08:57:08;;;;;;;7.18;2.65;;;;;;;25.60;40.94;100826.69;4995067;28;20058;-64
2022/06/23 09:00:00;;;;;;;5.30;2.15;;;;;;;25.72;41.14;100832.50;5005961;28;20163;-64
2022/06/23 09:02:39;;;;;;;4.95;1.92;;;;;;;25.78;39.57;100825.56;4998069;28;20056;-64
2022/06/23 09:05:40;;;;;;;5.78;2.00;;;;;;;25.74;40.22;100827.75;5001455;28;20054;-63
2022/06/23 09:08:14;;;;;;;5.22;1.70;;;;;;;25.80;39.80;100821.63;5005178;28;20058;-64
2022/06/23 09:11:01;;;;;;;9.40;2.15;;;;;;;25.90;38.96;100822.22;5004243;28;20160;-64
2022/06/23 09:13:44;;;;;;;10.55;2.33;;;;;;;26.00;39.37;100822.75;5001038;28;20046;-65
2022/06/23 09:16:35;;;;;;;4.68;2.10;;;;;;;26.13;39.37;100821.28;4997021;28;20058;-65
2022/06/23 09:19:17;;;;;;;5.32;2.22;;;;;;;26.26;37.62;100818.75;4999771;28;20050;-65
2022/06/23 09:21:58;;;;;;;9.93;2.53;;;;;;;26.27;37.70;100823.13;5001899;28;20108;-66
2022/06/23 09:24:57;;;;;;;7.57;1.88;;;;;;;26.48;37.14;100816.97;4997934;28;20042;-64
2022/06/23 09:28:01;;;;;;;10.23;2.33;;;;;;;26.58;35.89;100813.97;5000957;28;20046;-66
2022/06/23 09:30:40;;;;;;;3.38;1.88;;;;;;;26.68;36.08;100801.81;5009149;28;20057;-67
2022/06/23 09:33:35;;;;;;;8.20;2.53;;;;;;;26.77;36.44;100805.25;5009674;28;20058;-65
2022/06/23 09:36:15;;;;;;;8.07;2.20;;;;;;;26.83;36.03;100806.34;5000669;28;20054;-65
2022/06/23 09:39:01;;;;;;;7.47;2.05;;;;;;;26.86;36.38;100805.97;5002151;28;20627;-65
2022/06/23 09:41:46;;;;;;;4.55;1.77;;;;;;;26.92;35.62;100800.59;5001767;28;20524;-65
2022/06/23 09:44:36;;;;;;;3.28;1.60;;;;;;;26.99;35.49;100797.97;5007246;28;20352;-65
2022/06/23 09:47:35;;;;;;;4.10;1.70;;;;;;;27.11;35.41;100799.19;5001474;28;20053;-64
2022/06/23 09:50:08;;;;;;;7.63;2.50;;;;;;;27.24;35.08;100804.69;5004834;28;20077;-65
2022/06/23 09:52:44;;;;;;;4.72;1.80;;;;;;;27.33;34.05;100805.38;5000800;28;20053;-65
2022/06/23 09:55:35;;;;;;;5.72;2.25;;;;;;;27.34;34.28;100803.53;5004943;28;20488;-65
2022/06/23 09:58:02;;;;;;;4.55;1.70;;;;;;;27.38;34.43;100805.63;5007636;28;20065;-65
2022/06/23 10:00:51;;;;;;;9.30;1.88;;;;;;;27.42;33.97;100796.09;5000831;28;20034;-66
2022/06/23 10:03:21;;;;;;;7.60;2.00;;;;;;;27.47;34.16;100798.22;5012192;28;20197;-66
2022/06/23 10:05:48;;;;;;;3.88;2.20;;;;;;;27.46;33.60;100799.22;4999238;28;20042;-66
2022/06/23 10:08:27;;;;;;;9.27;2.30;;;;;;;27.41;33.57;100790.88;4989303;28;20456;-65
2022/06/23 10:11:22;;;;;;;8.43;2.00;;;;;;;27.41;33.99;100798.97;4998332;28;20140;-66
2022/06/23 10:14:02;;;;;;;6.68;2.03;;;;;;;27.50;33.64;100785.13;5004427;28;20079;-65
2022/06/23 10:16:55;;;;;;;7.28;2.60;;;;;;;27.56;33.89;100793.47;4996119;28;20058;-66
2022/06/23 10:19:41;;;;;;;5.38;2.20;;;;;;;27.67;34.02;100793.78;5001403;28;20729;-65
2022/06/23 10:22:31;;;;;;;4.65;1.98;;;;;;;27.85;33.78;100795.16;4999819;28;20129;-65
2022/06/23 10:25:07;;;;;;;4.00;2.10;;;;;;;27.99;33.16;100786.06;5002825;28;20760;-65
2022/06/23 10:28:04;;;;;;;6.70;1.83;;;;;;;28.08;33.18;100782.16;4999421;28;20049;-65
2022/06/23 10:30:40;;;;;;;8.02;2.00;;;;;;;28.23;32.96;100771.19;5018736;28;20050;-65
2022/06/23 10:33:13;;;;;;;4.07;1.92;;;;;;;28.25;32.05;100774.53;5002942;28;20058;-65
2022/06/23 10:35:51;;;;;;;5.13;2.15;;;;;;;28.37;32.04;100764.81;4999069;28;20169;-65
2022/06/23 10:38:52;;;;;;;3.25;1.70;;;;;;;28.34;32.02;100777.91;5003322;28;20052;-66
2022/06/23 10:41:55;;;;;;;5.38;1.63;;;;;;;28.40;31.80;100777.94;5001479;28;20639;-65
2022/06/23 10:45:01;;;;;;;4.07;1.70;;;;;;;28.51;31.62;100776.53;4998001;28;20176;-66
2022/06/23 10:47:51;;;;;;;3.08;2.13;;;;;;;28.64;31.32;100784.69;5000351;28;20381;-65
2022/06/23 10:50:43;;;;;;;2.97;1.52;;;;;;;28.76;30.11;100784.91;4974110;28;20058;-65
2022/06/23 10:53:55;;;;;;;3.47;1.60;;;;;;;28.92;28.13;100786.41;5000438;28;20054;-66
2022/06/23 10:56:57;;;;;;;2.42;1.38;;;;;;;28.87;28.09;100778.06;4997594;28;20461;-65
2022/06/23 10:59:36;;;;;;;3.67;1.38;;;;;;;28.80;27.85;100771.78;4997220;28;20085;-66
2022/06/23 11:02:19;;;;;;;3.65;1.50;;;;;;;28.86;28.27;100768.25;5000393;28;20057;-65
2022/06/23 11:04:46;;;;;;;2.22;1.50;;;;;;;28.92;28.52;100767.44;4997640;28;20646;-66
2022/06/23 11:07:23;;;;;;;5.13;1.85;;;;;;;28.98;29.02;100767.44;5001584;28;20053;-65
2022/06/23 11:10:32;;;;;;;8.85;1.83;;;;;;;28.99;29.43;100760.16;5001120;28;20054;-66
2022/06/23 11:13:11;;;;;;;4.70;1.65;;;;;;;29.06;29.28;100758.28;4984141;28;20065;-64
2022/06/23 11:16:12;;;;;;;4.47;1.50;;;;;;;29.13;29.12;100756.41;5002488;28;20049;-63
2022/06/23 11:18:58;;;;;;;5.38;2.38;;;;;;;29.29;28.94;100757.03;5008644;28;20055;-63
2022/06/23 11:22:07;;;;;;;6.32;1.90;;;;;;;29.43;28.15;100750.53;5001091;28;20042;-64
2022/06/23 11:24:59;;;;;;;4.53;1.40;;;;;;;29.33;28.18;100750.16;5000366;28;20050;-65
2022/06/23 11:27:50;;;;;;;2.90;1.58;;;;;;;29.42;28.32;100752.41;5005110;28;20072;-63
2022/06/23 11:30:56;;;;;;;2.88;1.63;;;;;;;29.54;28.71;100755.34;5003841;28;20061;-62
2022/06/23 11:33:44;;;;;;;2.55;1.42;;;;;;;29.72;27.86;100754.66;5001221;28;20050;-63
2022/06/23 11:36:42;;;;;;;5.32;1.75;;;;;;;29.92;28.23;100746.47;5002366;28;20060;-63
2022/06/23 11:39:46;;;;;;;4.05;1.33;;;;;;;30.10;28.30;100743.91;5004588;28;20064;-66
2022/06/23 11:42:16;;;;;;;6.00;1.55;;;;;;;30.26;27.90;100739.88;4986948;28;20046;-65
2022/06/23 11:45:09;;;;;;;4.40;1.50;;;;;;;30.34;27.91;100746.94;5000758;28;20052;-66
2022/06/23 11:48:02;;;;;;;4.45;1.55;;;;;;;30.50;28.06;100735.56;5000785;28;20449;-65
2022/06/23 11:50:41;;;;;;;9.45;1.70;;;;;;;30.57;27.21;100728.19;5002121;28;20062;-65
2022/06/23 11:53:48;;;;;;;8.25;2.28;;;;;;;30.73;27.31;100729.59;5002072;28;20087;-65
2022/06/23 11:56:38;;;;;;;8.50;2.03;;;;;;;30.64;27.23;100728.16;4998616;28;20053;-65
2022/06/23 11:59:24;;;;;;;5.55;1.65;;;;;;;30.75;27.39;100732.91;5006432;28;20140;-66
2022/06/23 12:02:12;;;;;;;3.95;1.92;;;;;;;30.89;26.65;100730.91;5002345;28;20076;-66
2022/06/23 12:05:06;;;;;;;3.65;1.65;;;;;;;30.92;26.48;100727.75;4985305;28;20095;-66
2022/06/23 12:08:08;;;;;;;6.50;1.83;;;;;;;31.12;26.48;100728.44;4984324;28;20053;-65
2022/06/23 12:10:35;;;;;;;4.93;1.60;;;;;;;31.32;26.83;100732.88;5009179;28;20084;-66
2022/06/23 12:13:04;;;;;;;3.70;1.55;;;;;;;31.44;25.98;100731.09;5022897;28;20076;-66
2022/06/23 12:15:40;;;;;;;6.57;1.50;;;;;;;31.60;26.40;100735.91;5008852;28;20097;-65
2022/06/23 12:18:17;;;;;;;3.70;1.52;;;;;;;31.62;25.01;100728.38;4992082;28;20065;-66
2022/06/23 12:20:59;;;;;;;2.90;1.73;;;;;;;31.63;25.19;100721.03;4999458;28;20069;-66
2022/06/23 12:23:40;;;;;;;2.83;1.77;;;;;;;31.84;25.93;100708.88;5000779;28;21296;-66
2022/06/23 12:26:15;;;;;;;4.28;1.70;;;;;;;31.92;25.31;100706.66;4993295;28;20057;-67
2022/06/23 12:29:14;;;;;;;3.28;1.45;;;;;;;32.11;25.36;100702.03;5002771;28;20358;-66
2022/06/23 12:31:50;;;;;;;3.25;1.33;;;;;;;32.28;25.09;100707.66;5000180;28;20357;-64
2022/06/23 12:34:42;;;;;;;5.05;1.95;;;;;;;32.34;25.08;100704.03;5001276;28;20046;-66
2022/06/23 12:37:18;;;;;;;3.03;1.60;;;;;;;32.27;24.93;100708.72;4982619;28;20539;-64